Portland, Missouri
Current Conditions -  °F | °C
As of 5:53 PM on Friday 24 Oct 2014 (Local Time) from KJEF Reporting Station
Few Clouds Few Clouds  
Wind Chill: 73°   Ceiling: Unl
Heat Index: 73°   Visibility: 10mi
Dew Point: 59°   Wind: 5mph
Humidity: 61%   Direction: 180°S
Pressure: 29.98"   Gusts: NA
Location:  38.71°N, 91.72°W
Report Text: KJEF 242253Z 18004KT 10SM FEW050 23/15 A2998 RMK AO2 SLP142 T02280150
Loading
Personal Weather Stations






























Interactive Weather Map
Tropical Storm Tracking
New forecast layout! Learn more

10-Day Weather Forecast

Advertisements
Track Severe Weather on mobile